createdAt,value
2018-10-12T00:00:25.770Z,12.20
2018-10-12T00:02:54.960Z,12.20
2018-10-12T00:05:24.073Z,12.20
2018-10-12T00:07:53.181Z,12.20
2018-10-12T00:10:22.421Z,12.30
2018-10-12T00:12:51.454Z,12.30
2018-10-12T00:15:20.634Z,12.30
2018-10-12T00:17:49.807Z,12.40
2018-10-12T00:20:18.838Z,12.40
2018-10-12T00:22:48.021Z,12.30
2018-10-12T00:25:17.147Z,12.30
2018-10-12T00:27:46.363Z,12.30
2018-10-12T00:30:15.411Z,12.30
2018-10-12T00:32:44.812Z,12.30
2018-10-12T00:35:14.420Z,12.30
2018-10-12T00:37:43.771Z,12.30
2018-10-12T00:40:13.051Z,12.40
2018-10-12T00:42:42.791Z,12.40
2018-10-12T00:45:11.958Z,12.30
2018-10-12T00:47:40.991Z,12.30
2018-10-12T00:50:10.193Z,12.20
2018-10-12T00:52:39.238Z,12.20
2018-10-12T00:55:08.275Z,12.20
2018-10-12T00:57:37.350Z,12.20
2018-10-12T01:00:06.405Z,12.20
2018-10-12T01:02:35.801Z,12.20
2018-10-12T01:05:05.203Z,12.20
2018-10-12T01:07:34.397Z,12.20
2018-10-12T01:10:03.518Z,12.20
2018-10-12T01:12:35.501Z,12.20
2018-10-12T01:15:05.076Z,12.20
2018-10-12T01:17:34.969Z,12.20
2018-10-12T01:20:04.644Z,12.20
2018-10-12T01:22:34.031Z,12.30
2018-10-12T01:25:04.253Z,12.30
2018-10-12T01:27:33.689Z,12.30
2018-10-12T01:30:04.054Z,12.30
2018-10-12T01:32:38.506Z,12.30
2018-10-12T01:35:07.579Z,12.40
2018-10-12T01:37:36.702Z,12.40
2018-10-12T01:40:12.418Z,12.40
2018-10-12T01:42:41.859Z,12.40
2018-10-12T01:45:11.099Z,12.50
2018-10-12T01:47:40.407Z,12.50
2018-10-12T01:50:09.479Z,12.50
2018-10-12T01:52:38.758Z,12.50
2018-10-12T01:55:07.879Z,12.60
2018-10-12T01:57:37.001Z,12.50
2018-10-12T02:00:06.345Z,12.50
2018-10-12T02:02:35.390Z,12.50
2018-10-12T02:05:04.565Z,12.50
2018-10-12T02:07:33.607Z,12.40
2018-10-12T02:10:02.767Z,12.40
2018-10-12T02:12:31.957Z,12.30
2018-10-12T02:15:01.247Z,12.30
2018-10-12T02:17:30.312Z,12.30
2018-10-12T02:19:59.570Z,12.30
2018-10-12T02:22:28.810Z,12.20
2018-10-12T02:24:58.127Z,12.20
2018-10-12T02:27:27.675Z,12.20
2018-10-12T02:29:57.124Z,12.10
2018-10-12T02:32:26.393Z,12.00
2018-10-12T02:34:55.557Z,12.00
2018-10-12T02:37:24.915Z,12.00
2018-10-12T02:39:54.399Z,11.90
2018-10-12T02:42:23.531Z,11.90
2018-10-12T02:44:53.391Z,11.80
2018-10-12T02:47:22.542Z,11.80
2018-10-12T02:49:51.639Z,11.80
2018-10-12T02:52:20.693Z,11.70
2018-10-12T02:54:49.838Z,11.70
2018-10-12T02:57:18.951Z,11.60
2018-10-12T02:59:48.095Z,11.70
2018-10-12T03:02:17.191Z,11.60
2018-10-12T03:04:46.324Z,11.60
2018-10-12T03:07:15.381Z,11.60
2018-10-12T03:09:44.531Z,11.60
2018-10-12T03:12:13.591Z,11.60
2018-10-12T03:14:42.653Z,11.60
2018-10-12T03:17:11.870Z,11.60
2018-10-12T03:19:40.891Z,11.60
2018-10-12T03:22:10.022Z,11.70
2018-10-12T03:24:39.238Z,11.70
2018-10-12T03:27:08.273Z,11.80
2018-10-12T03:29:37.370Z,11.80
2018-10-12T03:32:06.622Z,11.80
2018-10-12T03:34:35.812Z,11.80
2018-10-12T03:37:04.958Z,11.70
2018-10-12T03:39:34.108Z,11.80
2018-10-12T03:42:03.197Z,11.70
2018-10-12T03:44:32.385Z,11.80
2018-10-12T03:47:01.525Z,11.70
2018-10-12T03:49:31.079Z,11.70
2018-10-12T03:52:00.379Z,11.70
2018-10-12T03:54:29.469Z,11.70
2018-10-12T03:56:58.598Z,11.70
2018-10-12T03:59:27.789Z,11.60
2018-10-12T04:01:56.862Z,11.60
2018-10-12T04:04:26.061Z,11.60
2018-10-12T04:06:55.379Z,11.60
2018-10-12T04:09:25.387Z,11.50
2018-10-12T04:11:54.850Z,11.50
2018-10-12T04:14:23.893Z,11.50
2018-10-12T04:16:53.411Z,11.60
2018-10-12T04:19:22.602Z,11.70
2018-10-12T04:21:52.023Z,11.80
2018-10-12T04:24:21.283Z,11.90
2018-10-12T04:26:50.352Z,12.00
2018-10-12T04:29:19.504Z,12.10
2018-10-12T04:31:48.796Z,12.20
2018-10-12T04:34:18.710Z,12.20
2018-10-12T04:36:49.166Z,12.30
2018-10-12T04:39:29.446Z,12.40
2018-10-12T04:41:58.613Z,12.40
2018-10-12T04:44:27.663Z,12.60
2018-10-12T04:46:56.753Z,12.60
2018-10-12T04:49:25.904Z,12.70
2018-10-12T04:51:56.491Z,12.70
2018-10-12T04:54:26.392Z,12.70
2018-10-12T04:56:55.522Z,12.80
2018-10-12T04:59:24.691Z,12.90
2018-10-12T05:01:53.787Z,12.80
2018-10-12T05:04:22.852Z,12.80
2018-10-12T05:06:52.010Z,12.80
2018-10-12T05:09:21.016Z,12.80
2018-10-12T05:11:50.218Z,12.80
2018-10-12T05:14:19.505Z,12.80
2018-10-12T05:16:48.625Z,12.80
2018-10-12T05:19:17.642Z,12.80
2018-10-12T05:21:46.714Z,12.80
2018-10-12T05:24:15.761Z,12.70
2018-10-12T05:26:44.778Z,12.70
2018-10-12T05:29:13.811Z,12.70
2018-10-12T05:31:42.917Z,12.70
2018-10-12T05:34:12.116Z,12.70
2018-10-12T05:36:41.230Z,12.60
2018-10-12T05:39:11.882Z,12.60
2018-10-12T05:41:41.059Z,12.60
2018-10-12T05:44:10.337Z,12.60
2018-10-12T05:46:40.082Z,12.60
2018-10-12T05:49:20.322Z,12.70
2018-10-12T05:51:49.461Z,12.60
2018-10-12T05:54:18.590Z,12.70
2018-10-12T05:56:47.749Z,12.70
2018-10-12T05:59:17.025Z,12.60
2018-10-12T06:01:46.090Z,12.70
2018-10-12T06:04:15.213Z,12.70
2018-10-12T06:06:44.298Z,12.70
2018-10-12T06:09:13.471Z,12.70
2018-10-12T06:11:42.609Z,12.70
2018-10-12T06:14:11.623Z,12.70
2018-10-12T06:16:40.694Z,12.60
2018-10-12T06:19:09.750Z,12.60
2018-10-12T06:21:38.849Z,12.60
2018-10-12T06:24:07.967Z,12.70
2018-10-12T06:26:37.026Z,12.70
2018-10-12T06:29:06.173Z,12.80
2018-10-12T06:31:35.251Z,12.80
2018-10-12T06:34:04.306Z,12.80
2018-10-12T06:36:33.374Z,12.90
2018-10-12T06:39:02.399Z,12.80
2018-10-12T06:41:31.643Z,12.90
2018-10-12T06:44:03.199Z,13.00
2018-10-12T06:46:35.528Z,13.10
2018-10-12T06:49:04.740Z,13.10
2018-10-12T06:51:36.116Z,13.20
2018-10-12T06:54:05.264Z,13.20
2018-10-12T06:56:34.274Z,13.30
2018-10-12T06:59:03.609Z,13.30
2018-10-12T07:01:32.667Z,13.30
2018-10-12T07:04:01.948Z,13.30
2018-10-12T07:06:32.514Z,13.30
2018-10-12T07:09:01.570Z,13.40
2018-10-12T07:11:30.654Z,13.40
2018-10-12T07:13:59.812Z,13.40
2018-10-12T07:16:28.970Z,13.60
2018-10-12T07:19:00.737Z,13.70
2018-10-12T07:21:30.672Z,13.90
2018-10-12T07:24:01.401Z,14.00
2018-10-12T07:26:31.277Z,14.10
2018-10-12T07:29:01.342Z,14.30
2018-10-12T07:31:30.453Z,14.30
2018-10-12T07:33:59.539Z,14.50
2018-10-12T07:36:29.581Z,14.60
2018-10-12T07:38:58.715Z,14.70
2018-10-12T07:41:27.955Z,14.80
2018-10-12T07:43:57.123Z,14.80
2018-10-12T07:46:26.234Z,14.90
2018-10-12T07:48:55.344Z,15.10
2018-10-12T07:51:24.455Z,15.20
2018-10-12T07:53:53.568Z,15.30
2018-10-12T07:56:23.927Z,15.30
2018-10-12T07:58:53.101Z,15.40
2018-10-12T08:01:22.783Z,15.50
2018-10-12T08:03:52.069Z,15.50
2018-10-12T08:06:21.496Z,15.60
2018-10-12T08:08:50.606Z,15.70
2018-10-12T08:11:19.867Z,15.80
2018-10-12T08:13:52.179Z,15.90
2018-10-12T08:16:21.315Z,16.00
2018-10-12T08:18:50.533Z,16.20
2018-10-12T08:21:19.669Z,16.30
2018-10-12T08:23:48.763Z,16.40
2018-10-12T08:26:17.904Z,16.50
2018-10-12T08:28:46.986Z,16.60
2018-10-12T08:31:16.177Z,16.70
2018-10-12T08:33:45.633Z,16.80
2018-10-12T08:36:14.782Z,16.90
2018-10-12T08:38:43.900Z,17.00
2018-10-12T08:41:12.973Z,17.10
2018-10-12T08:43:45.392Z,17.20
2018-10-12T08:46:14.507Z,17.30
2018-10-12T08:48:43.637Z,17.40
2018-10-12T08:51:12.915Z,17.40
2018-10-12T08:53:42.045Z,17.50
2018-10-12T08:56:11.129Z,17.50
2018-10-12T09:01:14.905Z,17.50
2018-10-12T09:03:44.048Z,17.50
2018-10-12T09:06:13.133Z,17.60
2018-10-12T09:08:42.291Z,17.60
2018-10-12T09:11:11.333Z,17.70
2018-10-12T09:13:40.421Z,17.80
2018-10-12T09:16:10.185Z,17.90
2018-10-12T09:18:39.387Z,17.90
2018-10-12T09:21:08.619Z,18.10
2018-10-12T09:23:38.002Z,18.20
2018-10-12T09:26:07.235Z,18.20
2018-10-12T09:28:36.365Z,18.40
2018-10-12T09:31:05.846Z,18.50
2018-10-12T09:33:35.052Z,18.50
2018-10-12T09:36:04.568Z,18.60
2018-10-12T09:38:33.694Z,18.70
2018-10-12T09:41:02.753Z,18.80
2018-10-12T09:43:31.917Z,18.90
2018-10-12T09:46:01.084Z,19.00
2018-10-12T09:48:30.287Z,19.20
2018-10-12T09:50:59.481Z,19.30
2018-10-12T09:53:28.564Z,19.40
2018-10-12T09:55:57.700Z,19.40
2018-10-12T10:04:11.440Z,19.30
2018-10-12T10:06:40.500Z,19.30
2018-10-12T10:09:09.576Z,19.30
2018-10-12T10:11:40.503Z,19.30
2018-10-12T10:14:09.631Z,19.30
2018-10-12T10:16:38.698Z,19.20
2018-10-12T10:19:07.824Z,19.30
2018-10-12T10:21:36.949Z,19.30
2018-10-12T10:24:07.977Z,19.40
2018-10-12T10:26:37.115Z,19.50
2018-10-12T10:29:06.453Z,19.60
2018-10-12T10:31:38.827Z,19.60
2018-10-12T10:34:08.458Z,19.70
2018-10-12T10:36:40.426Z,19.70
2018-10-12T10:39:10.779Z,19.80
2018-10-12T10:41:40.298Z,19.80
2018-10-12T10:44:09.477Z,19.90
2018-10-12T10:46:38.763Z,19.90
2018-10-12T10:49:09.042Z,20.00
2018-10-12T10:51:38.157Z,20.00
2018-10-12T10:54:07.312Z,20.10
2018-10-12T10:56:36.352Z,20.20
2018-10-12T10:59:05.657Z,20.20
2018-10-12T11:01:34.772Z,20.20
2018-10-12T11:04:03.911Z,20.20
2018-10-12T11:06:33.045Z,20.20
2018-10-12T11:09:02.090Z,20.30
2018-10-12T11:11:31.164Z,20.30
2018-10-12T11:14:00.268Z,20.40
2018-10-12T11:16:29.347Z,20.40
2018-10-12T11:18:58.420Z,20.50
2018-10-12T11:21:27.504Z,20.50
2018-10-12T11:23:56.617Z,20.60
2018-10-12T11:26:25.776Z,20.60
2018-10-12T11:28:54.876Z,20.70
2018-10-12T11:31:24.005Z,20.70
2018-10-12T11:33:53.027Z,20.80
2018-10-12T11:36:22.128Z,20.90
2018-10-12T11:38:51.160Z,20.90
2018-10-12T11:41:20.408Z,21.00
2018-10-12T11:43:49.578Z,21.00
2018-10-12T11:46:18.660Z,21.10
2018-10-12T11:48:47.779Z,21.10
2018-10-12T11:51:16.841Z,21.10
2018-10-12T11:53:45.948Z,21.10
2018-10-12T11:56:15.049Z,21.20
2018-10-12T11:58:44.140Z,21.20
2018-10-12T12:01:13.238Z,21.30
2018-10-12T12:03:42.278Z,21.30
2018-10-12T12:06:11.353Z,21.30
2018-10-12T12:08:40.547Z,21.40
2018-10-12T12:11:09.628Z,21.40
2018-10-12T12:13:38.677Z,21.40
2018-10-12T12:16:07.838Z,21.40
2018-10-12T12:18:36.877Z,21.40
2018-10-12T12:21:05.982Z,21.50
2018-10-12T12:23:35.093Z,21.60
2018-10-12T12:26:04.261Z,21.60
2018-10-12T12:28:33.424Z,21.60
2018-10-12T12:31:02.536Z,21.60
2018-10-12T12:33:31.699Z,21.70
2018-10-12T12:36:01.144Z,21.70
2018-10-12T12:38:30.033Z,21.70
2018-10-12T12:40:59.127Z,21.70
2018-10-12T12:43:28.148Z,21.60
2018-10-12T12:45:57.295Z,21.60
2018-10-12T12:48:26.638Z,21.60
2018-10-12T12:50:55.397Z,21.70
2018-10-12T12:53:24.468Z,21.70
2018-10-12T12:55:53.520Z,21.80
2018-10-12T12:58:22.573Z,21.80
2018-10-12T13:00:51.678Z,21.80
2018-10-12T13:03:20.731Z,21.90
2018-10-12T13:05:49.893Z,21.90
2018-10-12T13:08:19.019Z,22.00
2018-10-12T13:10:48.109Z,22.00
2018-10-12T13:13:17.181Z,22.00
2018-10-12T13:15:46.320Z,22.00
2018-10-12T13:18:22.151Z,22.00
2018-10-12T13:20:51.193Z,22.00
2018-10-12T13:23:20.336Z,22.00
2018-10-12T13:28:16.700Z,22.10
2018-10-12T13:30:45.848Z,22.20
2018-10-12T13:33:14.937Z,22.30
2018-10-12T13:35:44.037Z,22.30
2018-10-12T13:38:13.116Z,22.30
2018-10-12T13:40:42.224Z,22.40
2018-10-12T13:43:11.330Z,22.40
2018-10-12T13:45:40.438Z,22.50
2018-10-12T13:48:09.528Z,22.60
2018-10-12T13:50:38.562Z,22.60
2018-10-12T13:53:07.755Z,22.70
2018-10-12T13:55:36.823Z,22.70
2018-10-12T13:58:05.925Z,22.70
2018-10-12T14:00:35.045Z,22.70
2018-10-12T14:03:04.136Z,22.60
2018-10-12T14:05:33.241Z,22.60
2018-10-12T14:08:02.301Z,22.60
2018-10-12T14:10:31.380Z,22.50
2018-10-12T14:13:00.507Z,22.50
2018-10-12T14:15:30.236Z,22.60
2018-10-12T14:17:59.403Z,22.40
2018-10-12T14:20:28.534Z,22.40
2018-10-12T14:22:57.705Z,22.40
2018-10-12T14:25:26.816Z,22.40
2018-10-12T14:27:55.907Z,22.30
2018-10-12T14:30:25.101Z,22.30
2018-10-12T14:32:54.274Z,22.20
2018-10-12T14:35:23.452Z,22.30
2018-10-12T14:37:52.584Z,22.30
2018-10-12T14:40:21.701Z,22.30
2018-10-12T14:42:50.820Z,22.20
2018-10-12T14:45:20.038Z,22.20
2018-10-12T14:47:49.313Z,22.20
2018-10-12T14:50:18.430Z,22.10
2018-10-12T14:52:47.520Z,22.10
2018-10-12T14:55:16.717Z,22.10
2018-10-12T14:57:46.065Z,22.10
2018-10-12T15:00:15.405Z,22.10
2018-10-12T15:02:44.771Z,22.00
2018-10-12T15:05:13.926Z,22.00
2018-10-12T15:07:43.094Z,21.90
2018-10-12T15:10:12.334Z,21.80
2018-10-12T15:12:41.556Z,21.80
2018-10-12T15:15:17.824Z,21.70
2018-10-12T15:20:23.524Z,21.60
2018-10-12T15:22:52.662Z,21.60
2018-10-12T15:25:21.834Z,21.60
2018-10-12T15:27:51.016Z,21.50
2018-10-12T15:30:20.357Z,21.50
2018-10-12T15:32:49.507Z,21.50
2018-10-12T15:35:18.650Z,21.50
2018-10-12T15:37:47.888Z,21.40
2018-10-12T15:40:17.036Z,21.40
2018-10-12T15:42:46.221Z,21.40
2018-10-12T15:45:15.239Z,21.30
2018-10-12T15:47:44.380Z,21.30
2018-10-12T15:50:13.528Z,21.10
2018-10-12T15:52:42.654Z,21.00
2018-10-12T15:55:11.797Z,20.90
2018-10-12T15:57:41.141Z,20.80
2018-10-12T16:00:10.491Z,20.70
2018-10-12T16:02:39.653Z,20.50
2018-10-12T16:05:08.844Z,20.30
2018-10-12T16:07:37.918Z,20.20
2018-10-12T16:10:07.178Z,20.10
2018-10-12T16:12:36.333Z,19.90
2018-10-12T16:15:05.750Z,19.80
2018-10-12T16:17:34.843Z,19.60
2018-10-12T16:20:04.058Z,19.50
2018-10-12T16:22:33.126Z,19.40
2018-10-12T16:25:13.504Z,19.30
2018-10-12T16:27:42.590Z,19.20
2018-10-12T16:30:11.711Z,19.10
2018-10-12T16:32:40.732Z,19.00
2018-10-12T16:35:09.831Z,18.90
2018-10-12T16:37:39.053Z,18.80
2018-10-12T16:40:08.167Z,18.60
2018-10-12T16:42:37.282Z,18.50
2018-10-12T16:45:06.378Z,18.40
2018-10-12T16:47:35.615Z,18.30
2018-10-12T16:50:04.844Z,18.20
2018-10-12T16:52:34.314Z,18.10
2018-10-12T16:55:03.439Z,18.00
2018-10-12T16:57:35.119Z,18.00
2018-10-12T17:00:05.283Z,17.90
2018-10-12T17:02:34.854Z,17.80
2018-10-12T17:05:04.036Z,17.80
2018-10-12T17:07:33.179Z,17.80
2018-10-12T17:10:02.290Z,17.70
2018-10-12T17:12:31.525Z,17.70
2018-10-12T17:15:00.656Z,17.60
2018-10-12T17:17:29.882Z,17.70
2018-10-12T17:19:58.987Z,17.70
2018-10-12T17:22:28.192Z,17.60
2018-10-12T17:24:57.280Z,17.60
2018-10-12T17:27:26.454Z,17.60
2018-10-12T17:29:55.603Z,17.60
2018-10-12T17:32:24.701Z,17.50
2018-10-12T17:34:53.795Z,17.50
2018-10-12T17:37:22.924Z,17.50
2018-10-12T17:39:52.360Z,17.40
2018-10-12T17:42:21.477Z,17.40
2018-10-12T17:44:50.629Z,17.30
2018-10-12T17:47:19.755Z,17.20
2018-10-12T17:49:48.928Z,17.20
2018-10-12T17:52:17.982Z,17.20
2018-10-12T17:54:47.076Z,17.20
2018-10-12T17:57:16.199Z,17.20
2018-10-12T17:59:45.474Z,17.10
2018-10-12T18:02:14.707Z,17.10
2018-10-12T18:04:43.862Z,17.10
2018-10-12T18:07:13.021Z,17.10
2018-10-12T18:09:42.315Z,17.10
2018-10-12T18:12:11.593Z,17.10
2018-10-12T18:14:40.727Z,17.10
2018-10-12T18:17:10.103Z,17.00
2018-10-12T18:19:39.230Z,17.00
2018-10-12T18:22:08.557Z,17.00
2018-10-12T18:24:38.133Z,16.90
2018-10-12T18:27:07.701Z,16.80
2018-10-12T18:29:36.900Z,16.70
2018-10-12T18:32:06.777Z,16.70
2018-10-12T18:34:36.396Z,16.70
2018-10-12T18:37:06.111Z,16.60
2018-10-12T18:39:35.505Z,16.60
2018-10-12T18:42:06.224Z,16.70
2018-10-12T18:44:38.566Z,16.70
2018-10-12T18:47:07.887Z,16.70
2018-10-12T18:49:37.288Z,16.70
2018-10-12T18:52:06.691Z,16.70
2018-10-12T18:54:36.044Z,16.70
2018-10-12T18:57:05.471Z,16.70
2018-10-12T18:59:34.844Z,16.70
2018-10-12T19:02:04.213Z,16.60
2018-10-12T19:04:33.690Z,16.60
2018-10-12T19:07:03.436Z,16.50
2018-10-12T19:09:32.988Z,16.50
2018-10-12T19:12:02.462Z,16.50
2018-10-12T19:14:31.905Z,16.50
2018-10-12T19:17:01.597Z,16.40
2018-10-12T19:19:31.061Z,16.40
2018-10-12T19:22:00.483Z,16.40
2018-10-12T19:24:29.734Z,16.40
2018-10-12T19:26:59.157Z,16.40
2018-10-12T19:29:28.437Z,16.40
2018-10-12T19:31:57.915Z,16.50
2018-10-12T19:34:28.350Z,16.50
2018-10-12T19:36:57.908Z,16.40
2018-10-12T19:39:27.221Z,16.40
2018-10-12T19:41:56.496Z,16.30
2018-10-12T19:44:25.922Z,16.30
2018-10-12T19:46:55.186Z,16.30
2018-10-12T19:49:24.673Z,16.30
2018-10-12T19:51:54.010Z,16.20
2018-10-12T19:54:23.390Z,16.20
2018-10-12T19:56:52.854Z,16.20
2018-10-12T19:59:22.305Z,16.20
2018-10-12T20:01:51.937Z,16.10
2018-10-12T20:04:21.466Z,16.10
2018-10-12T20:06:50.801Z,16.00
2018-10-12T20:09:20.337Z,16.00
2018-10-12T20:11:50.355Z,16.00
2018-10-12T20:14:19.778Z,16.00
2018-10-12T20:16:49.115Z,16.00
2018-10-12T20:19:18.572Z,16.00
2018-10-12T20:21:47.901Z,16.00
2018-10-12T20:24:17.128Z,15.90
2018-10-12T20:26:46.251Z,15.90
2018-10-12T20:29:15.538Z,15.80
2018-10-12T20:31:44.697Z,15.70
2018-10-12T20:34:13.878Z,15.70
2018-10-12T20:36:43.176Z,15.60
2018-10-12T20:39:12.681Z,15.50
2018-10-12T20:41:41.943Z,15.60
2018-10-12T20:44:11.096Z,15.50
2018-10-12T20:46:40.258Z,15.50
2018-10-12T20:49:09.469Z,15.50
2018-10-12T20:51:38.980Z,15.50
2018-10-12T20:54:08.104Z,15.40
2018-10-12T20:56:37.173Z,15.40
2018-10-12T20:59:06.456Z,15.40
2018-10-12T21:01:35.738Z,15.30
2018-10-12T21:04:04.969Z,15.30
2018-10-12T21:06:34.368Z,15.20
2018-10-12T21:09:03.654Z,15.30
2018-10-12T21:11:32.817Z,15.20
2018-10-12T21:14:01.973Z,15.10
2018-10-12T21:16:31.167Z,15.10
2018-10-12T21:19:00.349Z,15.00
2018-10-12T21:21:29.508Z,14.90
2018-10-12T21:23:59.001Z,14.80
2018-10-12T21:26:28.406Z,14.80
2018-10-12T21:28:57.506Z,14.80
2018-10-12T21:31:26.712Z,14.80
2018-10-12T21:33:55.791Z,14.80
2018-10-12T21:36:24.943Z,14.80
2018-10-12T21:38:54.074Z,14.80
2018-10-12T21:41:23.620Z,14.80
2018-10-12T21:43:54.750Z,14.90
2018-10-12T21:46:26.083Z,14.90
2018-10-12T21:48:55.175Z,14.90
2018-10-12T21:51:24.368Z,15.00
2018-10-12T21:53:53.741Z,15.00
2018-10-12T21:56:24.084Z,14.90
2018-10-12T21:58:54.589Z,15.00
2018-10-12T22:01:23.929Z,15.00
2018-10-12T22:03:53.083Z,15.00
2018-10-12T22:06:22.168Z,15.00
2018-10-12T22:08:57.788Z,15.00
2018-10-12T22:11:27.860Z,14.90
2018-10-12T22:13:57.074Z,15.00
2018-10-12T22:16:27.562Z,15.00
2018-10-12T22:18:57.017Z,15.00
2018-10-12T22:21:26.401Z,15.00
2018-10-12T22:23:55.597Z,15.00
2018-10-12T22:26:26.472Z,14.90
2018-10-12T22:28:56.978Z,14.80
2018-10-12T22:31:28.559Z,14.80
2018-10-12T22:33:57.660Z,14.80
2018-10-12T22:36:26.776Z,14.80
2018-10-12T22:38:55.910Z,14.80
2018-10-12T22:41:24.986Z,14.80
2018-10-12T22:43:54.078Z,14.80
2018-10-12T22:46:23.175Z,14.80
2018-10-12T22:48:52.325Z,14.70
2018-10-12T22:51:21.447Z,14.70
2018-10-12T22:53:50.539Z,14.70
2018-10-12T22:56:22.144Z,14.60
2018-10-12T22:58:51.286Z,14.60
2018-10-12T23:01:20.421Z,14.50
2018-10-12T23:03:49.627Z,14.50
2018-10-12T23:06:18.881Z,14.50
2018-10-12T23:08:48.089Z,14.50
2018-10-12T23:11:17.153Z,14.50
2018-10-12T23:13:46.237Z,14.50
2018-10-12T23:16:15.338Z,14.50
2018-10-12T23:18:44.590Z,14.40
2018-10-12T23:21:13.621Z,14.40
2018-10-12T23:23:42.698Z,14.30
2018-10-12T23:26:11.837Z,14.30
2018-10-12T23:28:40.897Z,14.30
2018-10-12T23:31:10.080Z,14.30
2018-10-12T23:33:50.475Z,14.30
2018-10-12T23:36:19.537Z,14.20
2018-10-12T23:38:48.693Z,14.30
2018-10-12T23:41:17.809Z,14.30
2018-10-12T23:43:46.955Z,14.20
2018-10-12T23:46:16.072Z,14.30
2018-10-12T23:48:45.151Z,14.30
2018-10-12T23:51:14.300Z,14.20
2018-10-12T23:53:43.476Z,14.30
2018-10-12T23:56:12.633Z,14.30
2018-10-12T23:58:41.709Z,14.30
